createdAt,value
2023-03-26T00:01:34.057Z,97229.41
2023-03-26T00:04:01.653Z,97229.41
2023-03-26T00:06:31.566Z,97220.47
2023-03-26T00:08:59.090Z,97219.63
2023-03-26T00:11:28.943Z,97226.69
2023-03-26T00:13:58.143Z,97227.66
2023-03-26T00:16:28.743Z,97223.59
2023-03-26T00:18:57.984Z,97219.13
2023-03-26T00:21:28.330Z,97220.59
2023-03-26T00:24:07.929Z,97215.91
2023-03-26T00:26:37.843Z,97202.91
2023-03-26T00:29:07.032Z,97213.09
2023-03-26T00:31:35.096Z,97216.63
2023-03-26T00:34:03.985Z,97218.19
2023-03-26T00:36:32.297Z,97220.69
2023-03-26T00:38:59.410Z,97208.63
2023-03-26T00:41:27.182Z,97212.69
2023-03-26T00:43:57.043Z,97213.81
2023-03-26T00:46:26.853Z,97217.16
2023-03-26T00:48:54.401Z,97217.38
2023-03-26T00:51:22.341Z,97203.56
2023-03-26T00:53:50.694Z,97207.81
2023-03-26T00:56:19.006Z,97209.97
2023-03-26T00:58:47.760Z,97206.13
2023-03-26T01:01:27.866Z,97204.47
2023-03-26T01:04:19.557Z,97208.13
2023-03-26T01:06:47.040Z,97198.03
2023-03-26T01:09:19.095Z,97185.75
2023-03-26T01:11:47.837Z,97191.69
2023-03-26T01:14:19.249Z,97198.34
2023-03-26T01:16:58.009Z,97190.47
2023-03-26T01:19:29.921Z,97185.06
2023-03-26T01:21:59.210Z,97183.59
2023-03-26T01:24:26.879Z,97173.81
2023-03-26T01:27:18.486Z,97169.53
2023-03-26T01:30:11.392Z,97163.34
2023-03-26T01:33:00.953Z,97166.94
2023-03-26T01:35:54.391Z,97163.94
2023-03-26T01:38:24.715Z,97162.19
2023-03-26T01:41:10.588Z,97164.78
2023-03-26T01:44:08.645Z,97157.47
2023-03-26T01:46:36.565Z,97157.06
2023-03-26T01:49:05.697Z,97147.53
2023-03-26T01:51:35.362Z,97136.94
2023-03-26T01:54:06.074Z,97135.38
2023-03-26T01:56:45.544Z,97146.47
2023-03-26T01:59:50.158Z,97140.47
2023-03-26T02:02:58.131Z,97146.28
2023-03-26T02:05:32.398Z,97147.81
2023-03-26T02:08:09.847Z,97160.75
2023-03-26T02:10:42.012Z,97156.22
2023-03-26T02:13:09.516Z,97161.78
2023-03-26T02:15:36.800Z,97159.31
2023-03-26T02:18:04.277Z,97157.13
2023-03-26T02:20:31.926Z,97146.34
2023-03-26T02:23:00.093Z,97152.16
2023-03-26T02:25:28.417Z,97146.22
2023-03-26T02:27:58.001Z,97146.63
2023-03-26T02:30:26.484Z,97151.09
2023-03-26T02:32:59.603Z,97148.56
2023-03-26T02:35:34.696Z,97147.72
2023-03-26T02:38:03.496Z,97155.91
2023-03-26T02:40:30.676Z,97157.75
2023-03-26T02:42:59.439Z,97149.31
2023-03-26T02:45:28.629Z,97151.19
2023-03-26T02:48:15.879Z,97166.84
2023-03-26T02:50:54.897Z,97160.41
2023-03-26T02:53:30.877Z,97160.56
2023-03-26T02:56:28.558Z,97164.31
2023-03-26T02:59:08.405Z,97153.28
2023-03-26T03:01:37.212Z,97159.53
2023-03-26T03:04:04.521Z,97159.28
2023-03-26T03:06:35.670Z,97166.16
2023-03-26T03:09:03.033Z,97163.28
2023-03-26T03:11:50.553Z,97165.97
2023-03-26T03:14:18.074Z,97156.63
2023-03-26T03:16:45.303Z,97162.00
2023-03-26T03:19:13.534Z,97166.53
2023-03-26T03:21:41.760Z,97164.41
2023-03-26T03:24:10.176Z,97170.25
2023-03-26T03:26:42.581Z,97155.34
2023-03-26T03:29:39.201Z,97152.75
2023-03-26T03:32:41.821Z,97155.72
2023-03-26T03:35:10.082Z,97148.59
2023-03-26T03:37:37.619Z,97150.06
2023-03-26T03:40:07.857Z,97157.56
2023-03-26T03:42:35.933Z,97155.38
2023-03-26T03:45:06.646Z,97157.97
2023-03-26T03:47:57.074Z,97155.22
2023-03-26T03:50:33.635Z,97168.97
2023-03-26T03:53:37.447Z,97165.38
2023-03-26T03:56:10.536Z,97170.19
2023-03-26T03:59:09.054Z,97161.59
2023-03-26T04:01:37.966Z,97154.25
2023-03-26T04:04:09.730Z,97169.69
2023-03-26T04:06:46.597Z,97173.69
2023-03-26T04:09:16.277Z,97174.53
2023-03-26T04:11:45.877Z,97178.31
2023-03-26T04:14:28.276Z,97171.78
2023-03-26T04:17:09.239Z,97177.41
2023-03-26T04:19:38.767Z,97177.78
2023-03-26T04:22:09.561Z,97177.41
2023-03-26T04:24:45.477Z,97184.25
2023-03-26T04:27:41.870Z,97183.22
2023-03-26T04:30:33.717Z,97176.47
2023-03-26T04:33:15.699Z,97176.56
2023-03-26T04:35:45.569Z,97174.25
2023-03-26T04:38:16.967Z,97168.97
2023-03-26T04:40:49.605Z,97161.88
2023-03-26T04:43:47.538Z,97152.53
2023-03-26T04:46:33.894Z,97154.63
2023-03-26T04:49:15.363Z,97153.31
2023-03-26T04:51:44.963Z,97151.34
2023-03-26T04:54:35.524Z,97149.63
2023-03-26T04:57:28.893Z,97155.84
2023-03-26T05:00:20.646Z,97148.31
2023-03-26T05:02:56.341Z,97155.97
2023-03-26T05:05:27.045Z,97159.13
2023-03-26T05:07:55.362Z,97141.44
2023-03-26T05:10:23.683Z,97143.13
2023-03-26T05:12:55.925Z,97135.34
2023-03-26T05:15:28.242Z,97138.09
2023-03-26T05:18:11.282Z,97142.34
2023-03-26T05:20:44.512Z,97137.16
2023-03-26T05:23:12.163Z,97126.78
2023-03-26T05:25:47.443Z,97138.41
2023-03-26T05:28:23.543Z,97142.38
2023-03-26T05:30:58.321Z,97129.41
2023-03-26T05:33:28.310Z,97127.75
2023-03-26T05:36:09.607Z,97131.22
2023-03-26T05:38:37.405Z,97133.81
2023-03-26T05:41:09.281Z,97131.00
2023-03-26T05:43:40.977Z,97123.66
2023-03-26T05:46:23.116Z,97130.91
2023-03-26T05:48:52.244Z,97124.16
2023-03-26T05:51:19.609Z,97117.94
2023-03-26T05:53:59.524Z,97110.28
2023-03-26T05:56:45.301Z,97127.59
2023-03-26T05:59:31.124Z,97142.13
2023-03-26T06:02:24.699Z,97142.03
2023-03-26T06:05:27.155Z,97135.69
2023-03-26T06:08:16.880Z,97132.09
2023-03-26T06:10:51.044Z,97124.88
2023-03-26T06:13:19.201Z,97122.97
2023-03-26T06:15:48.612Z,97123.44
2023-03-26T06:18:30.249Z,97131.00
2023-03-26T06:21:16.081Z,97130.59
2023-03-26T06:23:51.977Z,97129.22
2023-03-26T06:26:52.687Z,97135.38
2023-03-26T06:29:55.601Z,97136.00
2023-03-26T06:32:41.705Z,97136.50
2023-03-26T06:35:20.886Z,97125.69
2023-03-26T06:37:48.173Z,97125.94
2023-03-26T06:40:16.028Z,97122.09
2023-03-26T06:43:11.061Z,97124.00
2023-03-26T06:45:56.013Z,97120.25
2023-03-26T06:48:39.787Z,97117.84
2023-03-26T06:51:25.527Z,97134.84
2023-03-26T06:54:12.563Z,97137.56
2023-03-26T06:56:46.978Z,97143.38
2023-03-26T06:59:34.325Z,97131.28
2023-03-26T07:02:19.891Z,97138.47
2023-03-26T07:05:05.846Z,97126.38
2023-03-26T07:07:51.765Z,97130.50
2023-03-26T07:10:37.366Z,97114.00
2023-03-26T07:13:24.727Z,97099.41
2023-03-26T07:16:15.406Z,97086.13
2023-03-26T07:19:12.086Z,97076.50
2023-03-26T07:21:41.449Z,97073.19
2023-03-26T07:24:26.407Z,97073.94
2023-03-26T07:27:34.489Z,97093.72
2023-03-26T07:30:31.409Z,97086.31
2023-03-26T07:33:26.018Z,97090.19
2023-03-26T07:36:34.591Z,97080.97
2023-03-26T07:39:28.106Z,97072.56
2023-03-26T07:42:36.322Z,97075.78
2023-03-26T07:45:44.131Z,97071.03
2023-03-26T07:48:27.766Z,97072.00
2023-03-26T07:51:18.920Z,97070.28
2023-03-26T07:54:10.808Z,97054.78
2023-03-26T07:56:59.112Z,97047.63
2023-03-26T07:59:42.090Z,97046.19
2023-03-26T08:02:35.565Z,97034.63
2023-03-26T08:06:12.087Z,97029.38
2023-03-26T08:09:08.498Z,97034.44
2023-03-26T08:12:18.820Z,97036.97
2023-03-26T08:15:12.425Z,97028.31
2023-03-26T08:17:48.208Z,97030.94
2023-03-26T08:20:41.944Z,97022.63
2023-03-26T08:23:23.680Z,97022.34
2023-03-26T08:26:19.462Z,97015.19
2023-03-26T08:29:06.912Z,97016.38
2023-03-26T08:31:36.706Z,97017.19
2023-03-26T08:34:04.024Z,97021.44
2023-03-26T08:36:31.937Z,97020.56
2023-03-26T08:38:59.763Z,97023.81
2023-03-26T08:41:36.481Z,97015.81
2023-03-26T08:44:15.764Z,97015.75
2023-03-26T08:47:12.885Z,97011.00
2023-03-26T08:50:14.490Z,97012.19
2023-03-26T08:52:56.974Z,97002.38
2023-03-26T08:56:01.763Z,96988.97
2023-03-26T08:58:59.761Z,96986.75
2023-03-26T09:01:51.735Z,96969.22
2023-03-26T09:04:48.664Z,96967.44
2023-03-26T09:07:26.090Z,96960.31
2023-03-26T09:10:25.441Z,96953.09
2023-03-26T09:13:01.602Z,96951.13
2023-03-26T09:15:38.168Z,96940.03
2023-03-26T09:18:39.605Z,96946.00
2023-03-26T09:21:44.090Z,96938.28
2023-03-26T09:24:22.804Z,96946.94
2023-03-26T09:27:08.651Z,96940.63
2023-03-26T09:30:00.732Z,96933.56
2023-03-26T09:32:42.729Z,96926.84
2023-03-26T09:35:30.741Z,96911.97
2023-03-26T09:38:36.567Z,96900.50
2023-03-26T09:41:28.246Z,96894.81
2023-03-26T09:44:25.845Z,96880.84
2023-03-26T09:47:06.731Z,96871.84
2023-03-26T09:50:21.941Z,96863.13
2023-03-26T09:53:14.492Z,96865.84
2023-03-26T09:55:57.558Z,96875.16
2023-03-26T09:58:33.929Z,96865.50
2023-03-26T10:01:41.476Z,96868.91
2023-03-26T10:04:23.983Z,96864.75
2023-03-26T10:06:54.085Z,96854.25
2023-03-26T10:09:30.331Z,96852.25
2023-03-26T10:12:08.086Z,96832.63
2023-03-26T10:15:01.135Z,96832.91
2023-03-26T10:18:27.969Z,96822.56
2023-03-26T10:21:10.897Z,96831.59
2023-03-26T10:23:53.930Z,96816.22
2023-03-26T10:26:42.093Z,96806.31
2023-03-26T10:29:48.729Z,96810.63
2023-03-26T10:32:38.226Z,96794.91
2023-03-26T10:35:23.869Z,96790.81
2023-03-26T10:38:07.815Z,96777.84
2023-03-26T10:41:14.000Z,96787.22
2023-03-26T10:44:09.684Z,96791.53
2023-03-26T10:46:54.641Z,96786.66
2023-03-26T10:50:03.280Z,96788.56
2023-03-26T10:52:39.444Z,96788.09
2023-03-26T10:55:27.289Z,96781.97
2023-03-26T10:58:01.396Z,96769.22
2023-03-26T11:00:29.304Z,96765.59
2023-03-26T11:03:23.601Z,96765.63
2023-03-26T11:05:53.360Z,96761.34
2023-03-26T11:08:42.244Z,96757.03
2023-03-26T11:11:20.726Z,96765.75
2023-03-26T11:14:27.917Z,96751.31
2023-03-26T11:17:03.848Z,96732.25
2023-03-26T11:19:52.669Z,96721.91
2023-03-26T11:22:20.248Z,96726.97
2023-03-26T11:24:55.528Z,96719.88
2023-03-26T11:28:14.027Z,96716.47
2023-03-26T11:30:55.854Z,96705.50
2023-03-26T11:33:32.884Z,96692.34
2023-03-26T11:36:28.953Z,96690.50
2023-03-26T11:39:00.893Z,96694.63
2023-03-26T11:41:31.613Z,96677.97
2023-03-26T11:44:20.009Z,96673.44
2023-03-26T11:46:50.539Z,96675.13
2023-03-26T11:49:21.853Z,96675.50
2023-03-26T11:51:49.448Z,96661.38
2023-03-26T11:54:18.172Z,96653.25
2023-03-26T11:57:04.597Z,96644.56
2023-03-26T11:59:55.685Z,96634.59
2023-03-26T12:02:29.638Z,96624.53
2023-03-26T12:05:27.601Z,96622.13
2023-03-26T12:07:57.994Z,96605.16
2023-03-26T12:10:39.185Z,96607.97
2023-03-26T12:13:21.534Z,96602.22
2023-03-26T12:15:49.681Z,96599.09
2023-03-26T12:18:28.411Z,96578.53
2023-03-26T12:21:08.561Z,96573.69
2023-03-26T12:23:59.278Z,96564.09
2023-03-26T12:26:41.906Z,96567.56
2023-03-26T12:29:17.680Z,96559.53
2023-03-26T12:31:51.386Z,96555.56
2023-03-26T12:34:24.001Z,96556.28
2023-03-26T12:36:55.441Z,96541.31
2023-03-26T12:40:08.705Z,96538.38
2023-03-26T12:44:50.582Z,96527.31
2023-03-26T12:45:23.987Z,96540.28
2023-03-26T12:47:58.584Z,96527.00
2023-03-26T12:51:04.322Z,96520.31
2023-03-26T12:54:13.922Z,96516.66
2023-03-26T12:57:12.478Z,96513.44
2023-03-26T13:00:15.517Z,96509.63
2023-03-26T13:02:48.763Z,96509.03
2023-03-26T13:05:43.365Z,96512.13
2023-03-26T13:08:39.840Z,96503.59
2023-03-26T13:11:32.882Z,96492.75
2023-03-26T13:14:31.282Z,96500.41
2023-03-26T13:17:10.681Z,96480.97
2023-03-26T13:20:01.298Z,96482.81
2023-03-26T13:22:49.202Z,96474.97
2023-03-26T13:26:04.646Z,96471.44
2023-03-26T13:28:57.046Z,96465.59
2023-03-26T13:31:42.329Z,96464.84
2023-03-26T13:34:35.524Z,96447.97
2023-03-26T13:37:27.297Z,96446.41
2023-03-26T13:40:16.411Z,96443.06
2023-03-26T13:43:06.812Z,96422.09
2023-03-26T13:45:54.933Z,96421.16
2023-03-26T13:48:28.810Z,96412.41
2023-03-26T13:51:06.973Z,96419.63
2023-03-26T13:54:02.495Z,96411.41
2023-03-26T13:56:40.043Z,96412.88
2023-03-26T13:59:32.730Z,96414.16
2023-03-26T14:02:06.400Z,96420.53
2023-03-26T14:04:46.726Z,96409.16
2023-03-26T14:07:22.726Z,96409.19
2023-03-26T14:10:13.367Z,96399.78
2023-03-26T14:13:21.610Z,96387.78
2023-03-26T14:16:03.652Z,96388.78
2023-03-26T14:18:39.443Z,96385.34
2023-03-26T14:21:24.489Z,96380.66
2023-03-26T14:23:57.552Z,96382.06
2023-03-26T14:26:37.621Z,96377.00
2023-03-26T14:29:30.804Z,96376.19
2023-03-26T14:32:26.366Z,96370.66
2023-03-26T14:35:23.555Z,96365.38
2023-03-26T14:38:13.761Z,96358.66
2023-03-26T14:40:54.941Z,96344.78
2023-03-26T14:43:24.992Z,96343.53
2023-03-26T14:46:10.568Z,96340.28
2023-03-26T14:48:48.411Z,96331.72
2023-03-26T14:51:34.408Z,96316.88
2023-03-26T14:54:14.091Z,96308.28
2023-03-26T14:57:06.503Z,96303.00
2023-03-26T14:59:51.444Z,96301.56
2023-03-26T15:03:03.348Z,96301.97
2023-03-26T15:06:10.250Z,96291.38
2023-03-26T15:08:55.977Z,96296.28
2023-03-26T15:11:51.457Z,96298.31
2023-03-26T15:14:56.967Z,96289.50
2023-03-26T15:17:49.882Z,96286.84
2023-03-26T15:20:52.815Z,96286.19
2023-03-26T15:23:37.907Z,96290.81
2023-03-26T15:26:44.407Z,96290.38
2023-03-26T15:29:30.331Z,96289.75
2023-03-26T15:32:30.399Z,96283.47
2023-03-26T15:35:00.642Z,96283.59
2023-03-26T15:37:41.287Z,96289.44
2023-03-26T15:40:26.722Z,96299.97
2023-03-26T15:43:05.743Z,96299.47
2023-03-26T15:45:48.176Z,96297.78
2023-03-26T15:48:27.693Z,96293.25
2023-03-26T15:59:06.676Z,96281.47
2023-03-26T16:02:02.482Z,96286.78
2023-03-26T16:04:54.262Z,96298.09
2023-03-26T16:07:22.085Z,96290.38
2023-03-26T16:10:21.590Z,96310.59
2023-03-26T16:13:54.343Z,96281.88
2023-03-26T16:16:46.166Z,96292.84
2023-03-26T16:19:22.146Z,96298.25
2023-03-26T16:21:55.802Z,96305.28
2023-03-26T16:24:26.847Z,96322.88
2023-03-26T16:27:15.969Z,96340.22
2023-03-26T16:30:01.651Z,96334.88
2023-03-26T16:32:59.095Z,96325.25
2023-03-26T16:35:40.148Z,96332.50
2023-03-26T16:38:13.975Z,96331.59
2023-03-26T16:41:00.111Z,96333.94
2023-03-26T16:43:42.849Z,96341.03
2023-03-26T16:46:10.013Z,96336.63
2023-03-26T16:49:06.454Z,96336.22
2023-03-26T16:51:49.490Z,96327.75
2023-03-26T16:54:22.931Z,96338.97
2023-03-26T16:56:55.593Z,96344.56
2023-03-26T16:59:45.089Z,96344.56
2023-03-26T17:02:37.068Z,96338.81
2023-03-26T17:05:21.220Z,96341.97
2023-03-26T17:07:54.451Z,96342.31
2023-03-26T17:14:40.676Z,96356.25
2023-03-26T17:17:24.218Z,96350.03
2023-03-26T17:19:57.012Z,96344.28
2023-03-26T17:22:29.728Z,96345.78
2023-03-26T17:25:32.295Z,96353.47
2023-03-26T17:28:41.407Z,96349.06
2023-03-26T17:31:19.516Z,96350.22
2023-03-26T17:33:48.208Z,96346.25
2023-03-26T17:36:31.743Z,96343.81
2023-03-26T17:39:40.408Z,96336.41
2023-03-26T17:42:16.392Z,96342.50
2023-03-26T17:44:44.855Z,96344.13
2023-03-26T17:47:23.920Z,96352.19
2023-03-26T17:49:58.452Z,96351.03
2023-03-26T17:52:39.098Z,96348.25
2023-03-26T17:55:11.122Z,96351.88
2023-03-26T17:57:43.663Z,96360.56
2023-03-26T18:00:18.628Z,96372.88
2023-03-26T18:02:54.717Z,96365.31
2023-03-26T18:05:24.911Z,96360.91
2023-03-26T18:08:27.414Z,96355.16
2023-03-26T18:11:08.232Z,96351.88
2023-03-26T18:14:07.060Z,96337.47
2023-03-26T18:16:46.714Z,96331.25
2023-03-26T18:19:19.588Z,96325.66
2023-03-26T18:21:50.525Z,96327.63
2023-03-26T18:24:31.597Z,96324.69
2023-03-26T18:27:19.282Z,96320.09
2023-03-26T18:30:17.905Z,96327.78
2023-03-26T18:33:17.574Z,96316.97
2023-03-26T18:35:52.144Z,96321.75
2023-03-26T18:38:34.926Z,96313.84
2023-03-26T18:41:04.215Z,96310.91
2023-03-26T18:43:35.590Z,96303.19
2023-03-26T18:46:14.111Z,96304.53
2023-03-26T18:48:42.169Z,96309.28
2023-03-26T18:51:10.237Z,96307.94
2023-03-26T18:54:00.853Z,96309.56
2023-03-26T18:56:41.117Z,96315.16
2023-03-26T18:59:35.335Z,96308.59
2023-03-26T19:02:05.164Z,96310.25
2023-03-26T19:04:35.180Z,96303.69
2023-03-26T19:07:04.450Z,96302.53
2023-03-26T19:09:32.716Z,96310.56
2023-03-26T19:12:18.214Z,96306.00
2023-03-26T19:15:04.124Z,96311.56
2023-03-26T19:17:42.338Z,96314.53
2023-03-26T19:20:26.794Z,96312.53
2023-03-26T19:22:56.050Z,96320.41
2023-03-26T19:25:31.718Z,96317.09
2023-03-26T19:27:59.409Z,96315.28
2023-03-26T19:30:33.982Z,96315.94
2023-03-26T19:33:14.559Z,96315.44
2023-03-26T19:35:43.619Z,96315.53
2023-03-26T19:38:29.047Z,96320.44
2023-03-26T19:40:58.196Z,96311.41
2023-03-26T19:43:26.376Z,96312.75
2023-03-26T19:45:59.773Z,96311.06
2023-03-26T19:48:45.795Z,96309.91
2023-03-26T19:51:34.063Z,96303.34
2023-03-26T19:54:06.373Z,96300.22
2023-03-26T19:56:33.996Z,96300.22
2023-03-26T19:59:02.460Z,96290.41
2023-03-26T20:01:30.877Z,96289.41
2023-03-26T20:04:04.794Z,96284.97
2023-03-26T20:06:42.610Z,96279.53
2023-03-26T20:09:14.250Z,96284.44
2023-03-26T20:11:42.118Z,96296.59
2023-03-26T20:14:14.936Z,96287.78
2023-03-26T20:16:45.403Z,96285.44
2023-03-26T20:19:14.305Z,96284.44
2023-03-26T20:21:41.799Z,96280.19
2023-03-26T20:24:17.487Z,96264.16
2023-03-26T20:26:46.380Z,96275.19
2023-03-26T20:29:14.940Z,96260.81
2023-03-26T20:31:43.393Z,96258.13
2023-03-26T20:34:20.051Z,96246.53
2023-03-26T20:36:47.773Z,96244.50
2023-03-26T20:39:14.932Z,96224.31
2023-03-26T20:41:46.371Z,96224.94
2023-03-26T20:44:16.048Z,96223.78
2023-03-26T20:46:44.392Z,96223.84
2023-03-26T20:49:12.865Z,96217.78
2023-03-26T20:51:42.157Z,96217.78
2023-03-26T20:54:17.908Z,96217.19
2023-03-26T20:56:45.872Z,96206.50
2023-03-26T20:59:18.246Z,96212.38
2023-03-26T21:01:49.035Z,96228.44
2023-03-26T21:04:17.727Z,96224.81
2023-03-26T21:06:45.843Z,96230.41
2023-03-26T21:09:16.048Z,96232.16
2023-03-26T21:12:06.691Z,96225.72
2023-03-26T21:14:44.305Z,96221.69
2023-03-26T21:17:18.312Z,96222.63
2023-03-26T21:19:46.133Z,96224.03
2023-03-26T21:22:25.965Z,96216.84
2023-03-26T21:25:30.614Z,96211.13
2023-03-26T21:28:13.083Z,96213.84
2023-03-26T21:30:40.605Z,96198.72
2023-03-26T21:33:07.657Z,96199.56
2023-03-26T21:35:35.347Z,96199.75
2023-03-26T21:38:05.261Z,96195.84
2023-03-26T21:40:33.341Z,96203.38
2023-03-26T21:43:00.854Z,96198.16
2023-03-26T21:45:28.606Z,96197.81
2023-03-26T21:47:56.394Z,96194.38
2023-03-26T21:50:24.446Z,96196.88
2023-03-26T21:52:52.448Z,96192.56
2023-03-26T21:55:21.974Z,96191.97
2023-03-26T21:57:55.967Z,96194.88
2023-03-26T22:00:33.585Z,96191.41
2023-03-26T22:03:21.056Z,96190.59
2023-03-26T22:05:55.890Z,96195.34
2023-03-26T22:08:42.287Z,96196.00
2023-03-26T22:11:11.649Z,96189.00
2023-03-26T22:13:39.353Z,96192.44
2023-03-26T22:16:09.001Z,96201.50
2023-03-26T22:18:37.250Z,96199.00
2023-03-26T22:21:04.822Z,96195.31
2023-03-26T22:23:36.683Z,96186.31
2023-03-26T22:26:06.024Z,96174.72
2023-03-26T22:28:33.332Z,96174.31
2023-03-26T22:31:07.465Z,96161.34
2023-03-26T22:33:35.992Z,96145.50
2023-03-26T22:36:03.388Z,96143.56
2023-03-26T22:38:31.014Z,96130.13
2023-03-26T22:40:58.901Z,96134.56
2023-03-26T22:43:26.458Z,96132.09
2023-03-26T22:45:54.881Z,96126.25
2023-03-26T22:48:24.129Z,96125.59
2023-03-26T22:51:04.694Z,96120.22
2023-03-26T22:53:32.852Z,96116.13
2023-03-26T22:56:01.014Z,96105.81
2023-03-26T22:58:28.557Z,96111.78
2023-03-26T23:01:09.256Z,96109.16
2023-03-26T23:03:37.590Z,96096.97
2023-03-26T23:06:07.498Z,96096.94
2023-03-26T23:08:37.731Z,96088.28
2023-03-26T23:11:23.418Z,96088.28
2023-03-26T23:13:50.401Z,96097.59
2023-03-26T23:16:18.239Z,96094.31
2023-03-26T23:18:45.894Z,96102.38
2023-03-26T23:21:15.333Z,96102.59
2023-03-26T23:23:43.012Z,96104.69
2023-03-26T23:26:10.962Z,96102.91
2023-03-26T23:28:38.772Z,96097.69
2023-03-26T23:31:08.446Z,96097.03
2023-03-26T23:33:38.050Z,96081.06
2023-03-26T23:36:09.375Z,96078.44
2023-03-26T23:38:43.711Z,96089.19
2023-03-26T23:41:15.419Z,96084.63
2023-03-26T23:43:54.707Z,96084.63
2023-03-26T23:46:33.251Z,96093.47
2023-03-26T23:49:02.653Z,96096.06
2023-03-26T23:51:30.551Z,96083.94
2023-03-26T23:53:57.967Z,96088.53
2023-03-26T23:56:25.088Z,96077.78
2023-03-26T23:58:52.206Z,96070.41
